This is the latest recevied weather packets stored in our database for station/object DL7HMX-13. If no packets are shown the sender has not sent any weather packets the latest 10 day(s).
| Time | Temp. | Humidity | Pressure | Rain* | Wind** | Luminosity | Snow |
|---|---|---|---|---|---|---|---|
| 1777632622 | 17.78° C | 36% | 1027.9 hPa | 0 mm | - | 648 W/m² | - |
| 1777632024 | 17.22° C | 37% | 1028.1 hPa | 0 mm | - | 649 W/m² | - |
| 1777631426 | 17.22° C | 37% | 1028.3 hPa | 0 mm | - | 645 W/m² | - |
| 1777630828 | 17.22° C | 37% | 1028.3 hPa | 0 mm | - | 642 W/m² | - |
| 1777630231 | 17.22° C | 37% | 1028.5 hPa | 0 mm | - | 637 W/m² | - |
| 1777629619 | 16.67° C | 37% | 1028.5 hPa | 0 mm | - | 631 W/m² | - |
| 1777629021 | 16.67° C | 36% | 1028.6 hPa | 0 mm | - | 623 W/m² | - |
| 1777628424 | 16.11° C | 37% | 1028.8 hPa | 0 mm | - | 617 W/m² | - |
| 1777627826 | 16.67° C | 37% | 1028.9 hPa | 0 mm | - | 607 W/m² | - |
| 1777627229 | 16.11° C | 37% | 1028.9 hPa | 0 mm | - | 595 W/m² | - |
| 1777626616 | 16.11° C | 37% | 1028.9 hPa | 0 mm | - | 585 W/m² | - |
| 1777626019 | 15.56° C | 37% | 1028.9 hPa | 0 mm | - | 574 W/m² | - |
| 1777625421 | 15.56° C | 37% | 1028.9 hPa | 0 mm | - | 563 W/m² | - |
| 1777624825 | 15° C | 37% | 1029.1 hPa | 0 mm | - | 546 W/m² | - |
| 1777624227 | 15° C | 38% | 1029 hPa | 0 mm | - | 528 W/m² | - |
| 1777623631 | 15° C | 38% | 1029 hPa | 0 mm | - | 510 W/m² | - |
| 1777623016 | 15.56° C | 37% | 1028.9 hPa | 0 mm | - | 484 W/m² | - |
| 1777622419 | 15° C | 37% | 1029 hPa | 0 mm | - | 466 W/m² | - |
| 1777621823 | 14.44° C | 38% | 1028.9 hPa | 0 mm | - | 419 W/m² | - |
| 1777621224 | 13.89° C | 39% | 1028.9 hPa | 0 mm | - | 424 W/m² | - |
| 1777620627 | 13.33° C | 43% | 1028.8 hPa | 0 mm | - | 393 W/m² | - |
| 1777620030 | 12.78° C | 51% | 1028.8 hPa | 0 mm | - | 374 W/m² | - |
| 1777618820 | 11.11° C | 58% | 1028.9 hPa | 0 mm | - | 320 W/m² | - |
| 1777618223 | 8.89° C | 65% | 1028.9 hPa | 0 mm | - | 295 W/m² | - |
| 1777617625 | 8.89° C | 68% | 1028.9 hPa | 0 mm | - | 267 W/m² | - |
* Rain latest hour (hover to see other rain measurements)
** Current wind speed in m/s (hover to see current wind gust speed)